createdAt,value
2018-02-22T00:00:06.956Z,-2.14
2018-02-22T00:02:34.584Z,-2.10
2018-02-22T00:05:02.220Z,-2.08
2018-02-22T00:07:30.326Z,-2.03
2018-02-22T00:09:58.034Z,-2.02
2018-02-22T00:12:25.688Z,-2.04
2018-02-22T00:14:53.327Z,-2.05
2018-02-22T00:17:21.078Z,-2.15
2018-02-22T00:19:48.671Z,-2.15
2018-02-22T00:22:19.118Z,-2.12
2018-02-22T00:24:46.789Z,-2.11
2018-02-22T00:27:16.165Z,-2.09
2018-02-22T00:29:44.346Z,-2.05
2018-02-22T00:32:12.124Z,-2.08
2018-02-22T00:34:39.778Z,-2.12
2018-02-22T00:37:08.134Z,-2.10
2018-02-22T00:39:36.654Z,-2.10
2018-02-22T00:42:04.367Z,-2.13
2018-02-22T00:44:32.125Z,-2.18
2018-02-22T00:46:59.765Z,-2.28
2018-02-22T00:49:28.119Z,-2.36
2018-02-22T00:51:55.726Z,-2.37
2018-02-22T00:54:23.777Z,-2.43
2018-02-22T00:56:51.390Z,-2.44
2018-02-22T00:59:19.170Z,-2.39
2018-02-22T01:01:46.822Z,-2.45
2018-02-22T01:04:14.427Z,-2.42
2018-02-22T01:06:42.835Z,-2.36
2018-02-22T01:09:11.736Z,-2.46
2018-02-22T01:11:39.303Z,-2.35
2018-02-22T01:14:07.022Z,-2.36
2018-02-22T01:16:34.677Z,-2.32
2018-02-22T01:19:02.232Z,-2.31
2018-02-22T01:21:30.270Z,-2.25
2018-02-22T01:23:57.981Z,-2.25
2018-02-22T01:26:25.604Z,-2.30
2018-02-22T01:28:53.198Z,-2.36
2018-02-22T01:31:20.835Z,-2.37
2018-02-22T01:33:48.529Z,-2.34
2018-02-22T01:36:16.075Z,-2.44
2018-02-22T01:38:43.722Z,-2.34
2018-02-22T01:41:11.732Z,-2.26
2018-02-22T01:43:39.354Z,-2.21
2018-02-22T01:46:07.000Z,-2.24
2018-02-22T01:48:34.583Z,-2.20
2018-02-22T01:51:02.222Z,-2.18
2018-02-22T01:53:30.461Z,-2.25
2018-02-22T01:55:58.085Z,-2.26
2018-02-22T01:58:25.717Z,-2.33
2018-02-22T02:00:53.349Z,-2.36
2018-02-22T02:03:20.989Z,-2.27
2018-02-22T02:05:48.601Z,-2.29
2018-02-22T02:08:16.199Z,-2.18
2018-02-22T02:10:43.786Z,-2.24
2018-02-22T02:13:11.881Z,-2.27
2018-02-22T02:15:40.126Z,-2.29
2018-02-22T02:18:07.827Z,-2.27
2018-02-22T02:20:35.422Z,-2.25
2018-02-22T02:23:02.994Z,-2.34
2018-02-22T02:25:30.844Z,-2.37
2018-02-22T02:28:04.283Z,-2.35
2018-02-22T02:30:31.922Z,-2.45
2018-02-22T02:32:59.543Z,-2.43
2018-02-22T02:35:27.179Z,-2.41
2018-02-22T02:37:54.793Z,-2.37
2018-02-22T02:40:22.458Z,-2.33
2018-02-22T02:42:50.052Z,-2.38
2018-02-22T02:45:18.138Z,-2.44
2018-02-22T02:47:45.789Z,-2.43
2018-02-22T02:50:13.701Z,-2.40
2018-02-22T02:52:41.327Z,-2.37
2018-02-22T02:55:09.948Z,-2.43
2018-02-22T02:57:37.545Z,-2.41
2018-02-22T03:00:05.485Z,-2.48
2018-02-22T03:02:33.159Z,-2.40
2018-02-22T03:05:01.685Z,-2.40
2018-02-22T03:07:30.460Z,-2.43
2018-02-22T03:10:03.444Z,-2.46
2018-02-22T03:12:32.732Z,-2.43
2018-02-22T03:15:00.491Z,-2.48
2018-02-22T03:17:28.637Z,-2.57
2018-02-22T03:19:58.247Z,-2.54
2018-02-22T03:22:26.304Z,-2.53
2018-02-22T03:24:53.978Z,-2.56
2018-02-22T03:27:21.621Z,-2.52
2018-02-22T03:29:49.749Z,-2.62
2018-02-22T03:32:32.761Z,-2.66
2018-02-22T03:35:00.386Z,-2.57
2018-02-22T03:37:29.212Z,-2.59
2018-02-22T03:39:56.924Z,-2.53
2018-02-22T03:42:24.679Z,-2.48
2018-02-22T03:44:55.462Z,-2.53
2018-02-22T03:47:23.166Z,-2.56
2018-02-22T03:49:50.741Z,-2.56
2018-02-22T03:52:18.377Z,-2.56
2018-02-22T03:54:45.992Z,-2.58
2018-02-22T03:57:14.062Z,-2.60
2018-02-22T03:59:41.673Z,-2.61
2018-02-22T04:02:09.540Z,-2.59
2018-02-22T04:04:37.138Z,-2.56
2018-02-22T04:07:04.824Z,-2.71
2018-02-22T04:09:32.406Z,-2.68
2018-02-22T04:14:31.876Z,-2.70
2018-02-22T04:16:59.452Z,-2.76
2018-02-22T04:19:28.146Z,-2.83
2018-02-22T04:21:56.172Z,-2.83
2018-02-22T04:24:25.243Z,-2.73
2018-02-22T04:26:52.832Z,-2.71
2018-02-22T04:29:20.724Z,-2.76
2018-02-22T04:31:48.334Z,-2.72
2018-02-22T04:34:15.913Z,-2.73
2018-02-22T04:36:43.474Z,-2.75
2018-02-22T04:39:12.046Z,-2.78
2018-02-22T04:44:29.708Z,-2.82
2018-02-22T04:46:57.321Z,-2.85
2018-02-22T04:49:26.093Z,-2.80
2018-02-22T04:51:53.684Z,-2.74
2018-02-22T04:54:22.313Z,-2.72
2018-02-22T04:56:49.904Z,-2.82
2018-02-22T04:59:18.374Z,-2.71
2018-02-22T05:01:45.947Z,-2.74
2018-02-22T05:04:13.585Z,-2.85
2018-02-22T05:06:41.280Z,-2.85
2018-02-22T05:09:09.305Z,-2.88
2018-02-22T05:11:37.305Z,-2.92
2018-02-22T05:14:04.971Z,-2.85
2018-02-22T05:16:32.554Z,-2.90
2018-02-22T05:19:00.169Z,-3.02
2018-02-22T05:21:27.773Z,-2.88
2018-02-22T05:23:55.353Z,-2.89
2018-02-22T05:26:24.307Z,-2.84
2018-02-22T05:28:51.891Z,-2.80
2018-02-22T05:31:19.788Z,-2.79
2018-02-22T05:33:47.377Z,-2.90
2018-02-22T05:36:14.980Z,-2.94
2018-02-22T05:38:42.577Z,-2.95
2018-02-22T05:41:11.616Z,-2.89
2018-02-22T05:43:40.470Z,-2.95
2018-02-22T05:46:08.261Z,-2.88
2018-02-22T05:48:35.916Z,-2.92
2018-02-22T05:51:03.588Z,-2.82
2018-02-22T05:53:31.961Z,-2.87
2018-02-22T05:55:59.629Z,-2.96
2018-02-22T05:58:27.218Z,-2.96
2018-02-22T06:00:54.808Z,-3.01
2018-02-22T06:03:23.762Z,-3.04
2018-02-22T06:05:51.342Z,-3.06
2018-02-22T06:08:18.940Z,-2.93
2018-02-22T06:10:46.829Z,-3.09
2018-02-22T06:13:14.419Z,-2.82
2018-02-22T06:15:42.016Z,-2.76
2018-02-22T06:18:10.090Z,-2.78
2018-02-22T06:20:37.694Z,-2.67
2018-02-22T06:23:05.319Z,-2.74
2018-02-22T06:25:33.669Z,-2.71
2018-02-22T06:28:01.265Z,-2.71
2018-02-22T06:30:29.038Z,-2.86
2018-02-22T06:32:56.841Z,-2.96
2018-02-22T06:35:24.512Z,-2.94
2018-02-22T06:37:52.144Z,-3.01
2018-02-22T06:40:19.863Z,-2.89
2018-02-22T06:42:47.468Z,-2.75
2018-02-22T06:45:15.972Z,-2.65
2018-02-22T06:47:43.589Z,-2.62
2018-02-22T06:50:11.202Z,-2.68
2018-02-22T06:52:39.288Z,-2.73
2018-02-22T06:55:07.649Z,-2.60
2018-02-22T06:57:37.601Z,-2.63
2018-02-22T07:00:05.756Z,-2.69
2018-02-22T07:02:37.338Z,-2.73
2018-02-22T07:05:05.735Z,-2.62
2018-02-22T07:07:33.821Z,-2.54
2018-02-22T07:10:02.882Z,-2.53
2018-02-22T07:12:32.077Z,-2.56
2018-02-22T07:14:59.720Z,-2.44
2018-02-22T07:17:30.807Z,-2.50
2018-02-22T07:19:58.469Z,-2.45
2018-02-22T07:22:32.111Z,-2.40
2018-02-22T07:24:59.986Z,-2.46
2018-02-22T07:27:27.612Z,-2.55
2018-02-22T07:29:57.984Z,-2.43
2018-02-22T07:32:26.211Z,-2.48
2018-02-22T07:34:56.362Z,-2.50
2018-02-22T07:37:24.183Z,-2.46
2018-02-22T07:39:51.823Z,-2.35
2018-02-22T07:42:21.604Z,-2.18
2018-02-22T07:44:49.578Z,-2.20
2018-02-22T07:47:21.393Z,-2.18
2018-02-22T07:49:49.036Z,-2.13
2018-02-22T07:52:16.668Z,-2.09
2018-02-22T07:54:44.311Z,-2.04
2018-02-22T07:57:12.948Z,-2.03
2018-02-22T07:59:42.643Z,-2.08
2018-02-22T08:02:10.315Z,-2.20
2018-02-22T08:04:37.971Z,-2.19
2018-02-22T08:07:05.866Z,-2.14
2018-02-22T08:09:34.559Z,-2.09
2018-02-22T08:12:02.412Z,-2.14
2018-02-22T08:14:30.009Z,-2.15
2018-02-22T08:16:57.633Z,-1.98
2018-02-22T08:19:25.922Z,-2.02
2018-02-22T08:21:53.538Z,-2.16
2018-02-22T08:24:22.057Z,-2.02
2018-02-22T08:26:49.688Z,-2.00
2018-02-22T08:29:17.863Z,-2.09
2018-02-22T08:31:46.088Z,-2.10
2018-02-22T08:34:13.691Z,-2.07
2018-02-22T08:36:41.374Z,-2.03
2018-02-22T08:39:09.116Z,-2.03
2018-02-22T08:41:36.770Z,-2.09
2018-02-22T08:44:04.453Z,-1.97
2018-02-22T08:46:32.081Z,-1.98
2018-02-22T08:48:59.715Z,-2.05
2018-02-22T08:54:18.037Z,-2.09
2018-02-22T08:56:45.928Z,-2.17
2018-02-22T08:59:13.558Z,-1.99
2018-02-22T09:01:41.284Z,-1.95
2018-02-22T09:04:09.009Z,-1.67
2018-02-22T09:06:36.703Z,-1.43
2018-02-22T09:09:06.082Z,-1.55
2018-02-22T09:11:33.956Z,-1.31
2018-02-22T09:14:01.734Z,-1.13
2018-02-22T09:16:29.309Z,-1.10
2018-02-22T09:18:56.916Z,-1.31
2018-02-22T09:21:25.358Z,-1.16
2018-02-22T09:23:52.970Z,-1.15
2018-02-22T09:26:20.638Z,-1.30
2018-02-22T09:28:48.232Z,-1.17
2018-02-22T09:31:15.835Z,-1.19
2018-02-22T09:33:43.534Z,-1.20
2018-02-22T09:36:11.306Z,-1.48
2018-02-22T09:38:38.931Z,-1.36
2018-02-22T09:41:06.649Z,-1.32
2018-02-22T09:43:34.928Z,-1.34
2018-02-22T09:46:02.579Z,-1.30
2018-02-22T09:48:30.401Z,-1.23
2018-02-22T09:50:58.004Z,-1.45
2018-02-22T09:53:25.589Z,-1.33
2018-02-22T09:55:55.108Z,-1.44
2018-02-22T09:58:24.547Z,-1.29
2018-02-22T10:00:52.189Z,-1.13
2018-02-22T10:03:19.914Z,-1.17
2018-02-22T10:05:47.496Z,-1.08
2018-02-22T10:08:15.103Z,-1.10
2018-02-22T10:10:42.719Z,-0.88
2018-02-22T10:13:11.541Z,-0.77
2018-02-22T10:15:39.758Z,-0.78
2018-02-22T10:18:07.340Z,-0.79
2018-02-22T10:20:35.768Z,-0.65
2018-02-22T10:23:03.455Z,-0.71
2018-02-22T10:25:31.821Z,-0.83
2018-02-22T10:27:59.438Z,-0.85
2018-02-22T10:30:27.241Z,-0.89
2018-02-22T10:32:54.823Z,-1.01
2018-02-22T10:35:23.063Z,-1.08
2018-02-22T10:37:50.816Z,-0.96
2018-02-22T10:40:18.652Z,-0.97
2018-02-22T10:42:46.268Z,-0.97
2018-02-22T10:45:14.460Z,-1.13
2018-02-22T10:47:42.062Z,-1.06
2018-02-22T10:50:09.685Z,-0.91
2018-02-22T10:52:37.319Z,-0.83
2018-02-22T10:55:04.933Z,-0.87
2018-02-22T10:57:34.326Z,-0.87
2018-02-22T11:00:01.974Z,-0.95
2018-02-22T11:05:27.602Z,-0.89
2018-02-22T11:07:55.179Z,-0.78
2018-02-22T11:10:22.794Z,-0.82
2018-02-22T11:12:51.454Z,-0.96
2018-02-22T11:15:19.300Z,-0.95
2018-02-22T11:17:48.235Z,-0.92
2018-02-22T11:20:16.156Z,-0.91
2018-02-22T11:22:46.450Z,-0.81
2018-02-22T11:25:15.158Z,-0.75
2018-02-22T11:27:44.729Z,-0.84
2018-02-22T11:30:13.914Z,-0.80
2018-02-22T11:32:41.657Z,-0.60
2018-02-22T11:35:09.718Z,-0.55
2018-02-22T11:37:39.199Z,-0.51
2018-02-22T11:40:07.376Z,-0.32
2018-02-22T11:42:35.465Z,-0.51
2018-02-22T11:45:03.820Z,-0.38
2018-02-22T11:47:31.471Z,-0.36
2018-02-22T11:49:59.160Z,-0.33
2018-02-22T11:52:26.752Z,-0.35
2018-02-22T11:54:54.430Z,-0.48
2018-02-22T11:57:22.959Z,-1.26
2018-02-22T11:59:50.614Z,-0.44
2018-02-22T12:02:18.177Z,-0.33
2018-02-22T12:04:46.021Z,-0.62
2018-02-22T12:07:13.657Z,-0.69
2018-02-22T12:09:41.269Z,-0.69
2018-02-22T12:12:08.866Z,-0.67
2018-02-22T12:14:36.442Z,-0.72
2018-02-22T12:17:04.032Z,-0.75
2018-02-22T12:19:31.619Z,-0.75
2018-02-22T12:21:59.233Z,-0.89
2018-02-22T12:24:26.968Z,-0.71
2018-02-22T12:26:54.550Z,-0.73
2018-02-22T12:29:22.152Z,-0.22
2018-02-22T12:31:49.789Z,-0.19
2018-02-22T12:34:17.378Z,-0.08
2018-02-22T12:36:44.959Z,-0.17
2018-02-22T12:39:12.574Z,-0.05
2018-02-22T12:41:40.192Z,-0.18
2018-02-22T12:44:07.765Z,-0.19
2018-02-22T12:46:35.391Z,-0.22
2018-02-22T12:49:03.028Z,-0.51
2018-02-22T12:51:30.640Z,-0.57
2018-02-22T12:53:58.240Z,-0.61
2018-02-22T12:56:25.805Z,-0.80
2018-02-22T12:58:53.980Z,-0.93
2018-02-22T13:01:22.166Z,-1.07
2018-02-22T13:03:49.767Z,-0.87
2018-02-22T13:06:17.501Z,-0.79
2018-02-22T13:08:45.082Z,-0.98
2018-02-22T13:11:13.653Z,-0.93
2018-02-22T13:13:41.219Z,-0.75
2018-02-22T13:16:09.062Z,-0.77
2018-02-22T13:18:36.706Z,-0.98
2018-02-22T13:21:04.552Z,-0.75
2018-02-22T13:23:32.373Z,-0.78
2018-02-22T13:26:00.002Z,-0.76
2018-02-22T13:28:29.567Z,-0.68
2018-02-22T13:30:57.223Z,-0.66
2018-02-22T13:33:36.761Z,-0.85
2018-02-22T13:36:04.576Z,-0.86
2018-02-22T13:38:43.995Z,-0.99
2018-02-22T13:41:12.251Z,-0.80
2018-02-22T13:43:40.196Z,-0.50
2018-02-22T13:46:07.888Z,-0.44
2018-02-22T13:48:47.237Z,-0.44
2018-02-22T13:51:14.858Z,-0.12
2018-02-22T13:53:43.112Z,-0.05
2018-02-22T13:56:23.706Z,0.02
2018-02-22T13:58:51.395Z,-0.05
2018-02-22T14:01:30.672Z,-0.35
2018-02-22T14:03:58.250Z,-0.20
2018-02-22T14:06:26.389Z,0.24
2018-02-22T14:08:53.961Z,0.28
2018-02-22T14:11:21.547Z,0.33
2018-02-22T14:13:49.110Z,0.41
2018-02-22T14:16:16.685Z,0.29
2018-02-22T14:18:44.373Z,0.35
2018-02-22T14:21:12.924Z,0.53
2018-02-22T14:23:40.508Z,0.25
2018-02-22T14:26:08.156Z,0.05
2018-02-22T14:28:35.724Z,0.07
2018-02-22T14:31:03.339Z,0.22
2018-02-22T14:33:35.039Z,0.22
2018-02-22T14:36:02.764Z,0.19
2018-02-22T14:38:30.398Z,0.24
2018-02-22T14:40:57.980Z,0.21
2018-02-22T14:43:26.517Z,0.08
2018-02-22T14:45:54.132Z,-0.01
2018-02-22T14:48:21.754Z,0.05
2018-02-22T14:50:49.619Z,0.08
2018-02-22T14:53:17.175Z,0.19
2018-02-22T14:55:45.614Z,0.13
2018-02-22T14:58:13.462Z,0.04
2018-02-22T15:00:47.939Z,0.10
2018-02-22T15:03:15.513Z,-0.02
2018-02-22T15:05:52.860Z,-0.14
2018-02-22T15:08:20.482Z,-0.39
2018-02-22T15:10:48.235Z,-0.46
2018-02-22T15:13:16.247Z,-0.52
2018-02-22T15:15:44.771Z,-0.60
2018-02-22T15:18:12.671Z,-0.71
2018-02-22T15:20:40.296Z,-0.71
2018-02-22T15:23:08.240Z,-0.76
2018-02-22T15:25:36.731Z,-0.90
2018-02-22T15:28:07.166Z,-0.99
2018-02-22T15:30:37.859Z,-1.05
2018-02-22T15:33:05.724Z,-1.20
2018-02-22T15:35:33.846Z,-1.15
2018-02-22T15:38:08.576Z,-1.06
2018-02-22T15:40:42.355Z,-1.15
2018-02-22T15:43:10.308Z,-1.10
2018-02-22T15:45:38.412Z,-1.09
2018-02-22T15:48:10.281Z,-1.26
2018-02-22T15:50:38.018Z,-1.31
2018-02-22T15:53:05.753Z,-1.45
2018-02-22T15:55:35.391Z,-1.47
2018-02-22T15:58:03.051Z,-1.56
2018-02-22T16:00:34.447Z,-1.43
2018-02-22T16:03:02.063Z,-1.41
2018-02-22T16:05:30.696Z,-1.45
2018-02-22T16:07:58.532Z,-1.33
2018-02-22T16:10:26.195Z,-1.35
2018-02-22T16:12:53.809Z,-1.37
2018-02-22T16:15:21.780Z,-1.52
2018-02-22T16:17:49.400Z,-1.53
2018-02-22T16:20:17.019Z,-1.60
2018-02-22T16:22:44.630Z,-1.60
2018-02-22T16:25:13.007Z,-1.57
2018-02-22T16:27:40.834Z,-1.58
2018-02-22T16:30:08.449Z,-1.54
2018-02-22T16:32:36.112Z,-1.57
2018-02-22T16:37:36.774Z,-1.78
2018-02-22T16:40:04.540Z,-2.03
2018-02-22T16:42:32.165Z,-1.96
2018-02-22T16:45:00.026Z,-1.88
2018-02-22T16:47:29.892Z,-1.84
2018-02-22T16:49:57.601Z,-1.84
2018-02-22T16:52:26.961Z,-2.02
2018-02-22T16:54:54.765Z,-2.19
2018-02-22T16:57:30.195Z,-2.20
2018-02-22T16:59:58.266Z,-2.09
2018-02-22T17:02:26.127Z,-2.01
2018-02-22T17:04:53.855Z,-2.03
2018-02-22T17:07:21.513Z,-2.07
2018-02-22T17:09:49.212Z,-2.05
2018-02-22T17:12:17.053Z,-2.00
2018-02-22T17:14:44.654Z,-1.97
2018-02-22T17:17:13.873Z,-1.96
2018-02-22T17:19:41.554Z,-1.90
2018-02-22T17:22:10.072Z,-1.85
2018-02-22T17:24:38.184Z,-1.90
2018-02-22T17:27:12.121Z,-2.08
2018-02-22T17:29:45.288Z,-2.01
2018-02-22T17:32:18.322Z,-2.05
2018-02-22T17:34:46.016Z,-1.96
2018-02-22T17:37:18.924Z,-1.82
2018-02-22T17:42:53.222Z,-1.85
2018-02-22T17:45:21.744Z,-1.93
2018-02-22T17:47:49.565Z,-2.01
2018-02-22T17:50:17.399Z,-1.92
2018-02-22T17:52:45.080Z,-1.91
2018-02-22T17:55:13.932Z,-2.01
2018-02-22T17:57:41.599Z,-2.08
2018-02-22T18:00:09.346Z,-2.19
2018-02-22T18:02:37.228Z,-2.23
2018-02-22T18:05:04.963Z,-2.35
2018-02-22T18:07:33.608Z,-2.35
2018-02-22T18:10:03.069Z,-2.35
2018-02-22T18:12:30.786Z,-2.40
2018-02-22T18:14:58.443Z,-2.45
2018-02-22T18:17:26.844Z,-2.42
2018-02-22T18:19:54.576Z,-2.48
2018-02-22T18:22:23.634Z,-2.35
2018-02-22T18:24:51.276Z,-2.45
2018-02-22T18:27:19.194Z,-2.43
2018-02-22T18:29:48.765Z,-2.51
2018-02-22T18:32:16.462Z,-2.61
2018-02-22T18:34:44.072Z,-2.67
2018-02-22T18:37:17.721Z,-2.78
2018-02-22T18:39:45.591Z,-2.68
2018-02-22T18:42:18.757Z,-2.62
2018-02-22T18:44:51.984Z,-2.58
2018-02-22T18:47:19.927Z,-2.64
2018-02-22T18:49:47.639Z,-2.60
2018-02-22T18:52:15.389Z,-2.54
2018-02-22T18:54:43.023Z,-2.51
2018-02-22T18:57:11.094Z,-2.59
2018-02-22T18:59:38.867Z,-2.62
2018-02-22T19:02:06.485Z,-2.66
2018-02-22T19:04:35.453Z,-2.63
2018-02-22T19:07:03.481Z,-2.73
2018-02-22T19:09:31.105Z,-2.71
2018-02-22T19:11:58.838Z,-2.71
2018-02-22T19:14:26.459Z,-2.80
2018-02-22T19:16:54.184Z,-2.81
2018-02-22T19:19:22.017Z,-2.79
2018-02-22T19:21:49.684Z,-2.90
2018-02-22T19:24:17.357Z,-3.02
2018-02-22T19:26:46.376Z,-3.05
2018-02-22T19:29:14.177Z,-3.04
2018-02-22T19:31:41.953Z,-3.12
2018-02-22T19:34:09.614Z,-3.12
2018-02-22T19:36:37.217Z,-3.00
2018-02-22T19:39:04.938Z,-2.97
2018-02-22T19:41:33.042Z,-3.02
2018-02-22T19:44:01.019Z,-2.98
2018-02-22T19:46:28.667Z,-3.05
2018-02-22T19:49:15.279Z,-3.09
2018-02-22T19:51:42.898Z,-3.06
2018-02-22T19:54:10.502Z,-3.06
2018-02-22T19:56:38.428Z,-3.02
2018-02-22T19:59:06.034Z,-3.05
2018-02-22T20:01:33.921Z,-3.20
2018-02-22T20:04:01.830Z,-3.25
2018-02-22T20:06:29.721Z,-3.21
2018-02-22T20:08:57.570Z,-3.25
2018-02-22T20:11:25.285Z,-3.19
2018-02-22T20:13:53.011Z,-3.23
2018-02-22T20:16:21.053Z,-3.14
2018-02-22T20:18:48.753Z,-3.14
2018-02-22T20:21:17.142Z,-3.21
2018-02-22T20:23:45.000Z,-3.22
2018-02-22T20:26:12.978Z,-3.27
2018-02-22T20:28:40.644Z,-3.30
2018-02-22T20:31:11.578Z,-3.41
2018-02-22T20:33:39.224Z,-3.38
2018-02-22T20:36:06.880Z,-3.46
2018-02-22T20:38:35.533Z,-3.26
2018-02-22T20:41:05.356Z,-3.44
2018-02-22T20:43:33.603Z,-3.29
2018-02-22T20:46:01.289Z,-3.27
2018-02-22T20:48:29.005Z,-3.31
2018-02-22T20:51:01.373Z,-3.16
2018-02-22T20:53:33.185Z,-3.20
2018-02-22T20:56:01.034Z,-3.30
2018-02-22T20:58:28.924Z,-3.17
2018-02-22T21:00:56.651Z,-3.27
2018-02-22T21:03:25.352Z,-3.23
2018-02-22T21:05:53.150Z,-3.20
2018-02-22T21:08:21.100Z,-3.11
2018-02-22T21:10:48.915Z,-3.06
2018-02-22T21:13:17.760Z,-3.05
2018-02-22T21:15:45.440Z,-3.04
2018-02-22T21:18:13.267Z,-3.01
2018-02-22T21:20:40.867Z,-3.04
2018-02-22T21:23:08.502Z,-3.16
2018-02-22T21:25:36.139Z,-3.16
2018-02-22T21:28:03.750Z,-3.28
2018-02-22T21:30:31.956Z,-3.22
2018-02-22T21:32:59.617Z,-3.19
2018-02-22T21:35:28.453Z,-3.19
2018-02-22T21:37:56.099Z,-3.35
2018-02-22T21:40:23.788Z,-3.16
2018-02-22T21:42:51.487Z,-3.16
2018-02-22T21:45:19.165Z,-3.24
2018-02-22T21:47:46.828Z,-3.35
2018-02-22T21:50:21.956Z,-3.37
2018-02-22T21:52:49.641Z,-3.33
2018-02-22T21:55:17.272Z,-3.38
2018-02-22T21:57:45.952Z,-3.44
2018-02-22T22:00:14.143Z,-3.43
2018-02-22T22:02:41.819Z,-3.43
2018-02-22T22:05:10.926Z,-3.41
2018-02-22T22:07:38.847Z,-3.43
2018-02-22T22:10:06.454Z,-3.33
2018-02-22T22:12:34.218Z,-3.36
2018-02-22T22:15:01.889Z,-3.34
2018-02-22T22:17:30.439Z,-3.33
2018-02-22T22:19:58.159Z,-3.33
2018-02-22T22:22:25.791Z,-3.44
2018-02-22T22:24:53.393Z,-3.37
2018-02-22T22:27:21.019Z,-3.43
2018-02-22T22:29:48.696Z,-3.36
2018-02-22T22:32:16.684Z,-3.37
2018-02-22T22:34:44.320Z,-3.41
2018-02-22T22:37:13.000Z,-3.46
2018-02-22T22:39:40.848Z,-3.40
2018-02-22T22:42:08.814Z,-3.37
2018-02-22T22:44:36.558Z,-3.37
2018-02-22T22:47:04.274Z,-3.39
2018-02-22T22:49:32.059Z,-3.43
2018-02-22T22:51:59.854Z,-3.50
2018-02-22T22:54:27.554Z,-3.52
2018-02-22T22:56:55.260Z,-3.54
2018-02-22T22:59:23.255Z,-3.42
2018-02-22T23:01:57.736Z,-3.40
2018-02-22T23:04:25.903Z,-3.38
2018-02-22T23:06:54.390Z,-3.42
2018-02-22T23:09:29.143Z,-3.50
2018-02-22T23:11:56.906Z,-3.54
2018-02-22T23:14:25.354Z,-3.49
2018-02-22T23:16:53.094Z,-3.45
2018-02-22T23:19:20.728Z,-3.52
2018-02-22T23:21:48.353Z,-3.46
2018-02-22T23:24:16.210Z,-3.47
2018-02-22T23:26:44.168Z,-3.47
2018-02-22T23:29:13.593Z,-3.46
2018-02-22T23:31:41.594Z,-3.39
2018-02-22T23:34:09.627Z,-3.38
2018-02-22T23:36:37.247Z,-3.45
2018-02-22T23:39:05.117Z,-3.36
2018-02-22T23:41:39.118Z,-3.37
2018-02-22T23:44:06.836Z,-3.39
2018-02-22T23:46:34.566Z,-3.42
2018-02-22T23:49:02.212Z,-3.40
2018-02-22T23:51:29.913Z,-3.42
2018-02-22T23:53:59.454Z,-3.42
2018-02-22T23:56:27.170Z,-3.43
2018-02-22T23:58:55.685Z,-3.40
